Paradise, Missouri
Current Conditions -  °F | °C
As of 1:53 PM on Thursday 30 Oct 2014 (Local Time) from KMCI Reporting Station
Few Clouds Few Clouds  
Wind Chill: 18°   Ceiling: Unl
Heat Index: 18°   Visibility: 10mi
Dew Point:   Wind: 18mph
Humidity: 39%   Direction: 330°NNW
Pressure: 30.01"   Gusts: 26mph
Location:  39.3944°N, 94.5382°W
Report Text: KMCI 301853Z 33016G23KT 10SM FEW100 18/04 A3001 RMK AO2 SLP159 T01830039
Loading
Personal Weather Stations






























Interactive Weather Map
Tropical Storm Tracking
New forecast layout! Learn more

10-Day Weather Forecast

Advertisements
Track Severe Weather on mobile